createdAt,value
2023-04-15T00:00:39.227Z,98976.72
2023-04-15T00:04:51.008Z,98971.09
2023-04-15T00:08:56.956Z,98976.38
2023-04-15T00:12:59.649Z,98972.41
2023-04-15T00:17:04.872Z,98970.59
2023-04-15T00:21:07.737Z,98973.97
2023-04-15T00:25:12.064Z,98974.91
2023-04-15T00:29:15.546Z,98964.84
2023-04-15T00:33:18.432Z,98967.00
2023-04-15T00:37:21.641Z,98969.13
2023-04-15T00:41:25.901Z,98953.56
2023-04-15T00:45:34.525Z,98958.38
2023-04-15T00:49:37.667Z,98958.16
2023-04-15T00:53:43.978Z,98966.34
2023-04-15T00:57:52.285Z,98966.22
2023-04-15T01:01:55.736Z,98963.94
2023-04-15T01:06:03.892Z,98958.91
2023-04-15T01:10:12.826Z,98965.63
2023-04-15T01:14:18.362Z,98963.59
2023-04-15T01:18:22.540Z,98974.03
2023-04-15T01:22:28.001Z,98966.50
2023-04-15T01:26:32.637Z,98966.84
2023-04-15T01:30:36.336Z,98961.91
2023-04-15T01:34:39.436Z,98961.56
2023-04-15T01:38:42.516Z,98964.53
2023-04-15T01:42:46.813Z,98962.50
2023-04-15T01:46:49.997Z,98959.50
2023-04-15T01:50:53.861Z,98954.00
2023-04-15T01:54:57.088Z,98954.50
2023-04-15T01:59:04.264Z,98956.16
2023-04-15T02:03:06.770Z,98954.44
2023-04-15T02:07:09.824Z,98955.88
2023-04-15T02:11:12.757Z,98967.91
2023-04-15T02:15:17.121Z,98962.03
2023-04-15T02:19:20.186Z,98957.13
2023-04-15T02:23:22.712Z,98962.53
2023-04-15T02:27:25.634Z,98958.06
2023-04-15T02:31:30.508Z,98954.72
2023-04-15T02:35:33.701Z,98958.19
2023-04-15T02:39:37.009Z,98953.03
2023-04-15T02:43:40.329Z,98957.59
2023-04-15T02:47:46.218Z,98965.94
2023-04-15T02:51:50.062Z,98953.75
2023-04-15T02:55:52.990Z,98956.38
2023-04-15T02:59:56.017Z,98949.19
2023-04-15T03:04:00.942Z,98969.63
2023-04-15T03:08:04.446Z,98957.31
2023-04-15T03:12:07.157Z,98947.50
2023-04-15T03:16:10.363Z,98962.91
2023-04-15T03:20:15.904Z,98955.38
2023-04-15T03:24:19.430Z,98955.03
2023-04-15T03:28:23.994Z,98960.28
2023-04-15T03:32:27.520Z,98955.88
2023-04-15T03:36:33.635Z,98961.16
2023-04-15T03:40:39.055Z,98969.41
2023-04-15T03:44:41.942Z,98953.19
2023-04-15T03:48:45.258Z,98965.00
2023-04-15T03:52:50.738Z,98963.31
2023-04-15T03:56:53.915Z,98963.47
2023-04-15T04:00:57.366Z,98972.19
2023-04-15T04:05:00.320Z,98968.59
2023-04-15T04:09:05.120Z,98964.16
2023-04-15T04:13:08.083Z,98967.31
2023-04-15T04:17:11.505Z,98974.25
2023-04-15T04:21:14.581Z,98967.44
2023-04-15T04:25:19.341Z,98970.91
2023-04-15T04:29:22.512Z,98970.06
2023-04-15T04:33:25.431Z,98965.19
2023-04-15T04:37:28.637Z,98977.38
2023-04-15T04:41:33.689Z,98969.22
2023-04-15T04:45:36.782Z,98977.38
2023-04-15T04:49:39.567Z,98967.69
2023-04-15T04:53:43.350Z,98962.31
2023-04-15T04:57:48.164Z,98965.53
2023-04-15T05:01:51.669Z,98962.19
2023-04-15T05:05:55.006Z,98970.69
2023-04-15T05:09:57.620Z,98968.88
2023-04-15T05:14:02.638Z,98976.06
2023-04-15T05:18:05.888Z,98972.69
2023-04-15T05:22:14.516Z,98975.94
2023-04-15T05:26:17.975Z,98974.28
2023-04-15T05:30:22.787Z,98974.16
2023-04-15T05:34:25.909Z,98974.06
2023-04-15T05:38:28.667Z,98981.38
2023-04-15T05:42:31.705Z,98979.91
2023-04-15T05:46:36.140Z,98988.06
2023-04-15T05:50:39.350Z,98992.34
2023-04-15T05:54:41.874Z,98988.16
2023-04-15T05:58:44.726Z,98983.97
2023-04-15T06:02:49.071Z,98980.41
2023-04-15T06:06:51.834Z,98981.22
2023-04-15T06:10:54.761Z,98989.34
2023-04-15T06:15:00.201Z,98985.66
2023-04-15T06:19:05.065Z,98997.75
2023-04-15T06:23:08.290Z,99003.94
2023-04-15T06:27:11.052Z,99004.78
2023-04-15T06:31:16.266Z,99002.75
2023-04-15T06:35:20.762Z,99007.09
2023-04-15T06:39:23.882Z,99011.41
2023-04-15T06:43:26.567Z,99006.00
2023-04-15T06:47:29.692Z,99006.94
2023-04-15T06:51:34.205Z,99011.28
2023-04-15T06:55:38.445Z,99013.47
2023-04-15T06:59:41.325Z,99013.47
2023-04-15T07:03:44.231Z,99021.16
2023-04-15T07:07:48.429Z,99024.00
2023-04-15T07:11:51.671Z,99027.97
2023-04-15T07:15:54.710Z,99041.75
2023-04-15T07:19:57.797Z,99034.31
2023-04-15T07:24:01.884Z,99038.00
2023-04-15T07:28:10.861Z,99034.94
2023-04-15T07:32:13.968Z,99038.03
2023-04-15T07:36:20.207Z,99036.97
2023-04-15T07:40:24.735Z,99033.16
2023-04-15T07:44:28.277Z,99036.16
2023-04-15T07:48:31.082Z,99029.94
2023-04-15T07:52:39.421Z,99029.09
2023-04-15T07:56:43.963Z,99042.97
2023-04-15T08:00:47.122Z,99043.13
2023-04-15T08:04:49.957Z,99040.09
2023-04-15T08:08:55.938Z,99042.16
2023-04-15T08:13:00.405Z,99038.91
2023-04-15T08:17:04.431Z,99032.59
2023-04-15T08:21:09.766Z,99038.59
2023-04-15T08:25:12.446Z,99033.47
2023-04-15T08:29:16.737Z,99031.28
2023-04-15T08:33:19.731Z,99041.22
2023-04-15T08:37:23.444Z,99039.31
2023-04-15T08:41:27.452Z,99052.38
2023-04-15T08:45:32.410Z,99037.66
2023-04-15T08:49:37.168Z,99039.53
2023-04-15T08:53:40.397Z,99043.16
2023-04-15T08:57:45.620Z,99052.59
2023-04-15T09:01:51.008Z,99050.91
2023-04-15T09:05:55.265Z,99049.59
2023-04-15T09:09:58.849Z,99059.44
2023-04-15T09:14:01.909Z,99053.66
2023-04-15T09:18:06.676Z,99058.09
2023-04-15T09:22:09.975Z,99056.81
2023-04-15T09:26:13.954Z,99054.03
2023-04-15T09:30:18.381Z,99055.84
2023-04-15T09:34:37.235Z,99061.22
2023-04-15T09:38:56.675Z,99066.22
2023-04-15T09:43:01.776Z,99071.78
2023-04-15T09:47:04.858Z,99074.66
2023-04-15T09:51:09.480Z,99080.63
2023-04-15T09:55:13.722Z,99082.09
2023-04-15T09:59:20.119Z,99091.56
2023-04-15T10:03:25.630Z,99084.75
2023-04-15T10:07:31.024Z,99084.03
2023-04-15T10:11:36.738Z,99094.09
2023-04-15T10:15:43.553Z,99095.09
2023-04-15T10:19:47.357Z,99086.69
2023-04-15T10:23:53.877Z,99090.06
2023-04-15T10:27:59.220Z,99095.25
2023-04-15T10:32:03.562Z,99100.34
2023-04-15T10:36:08.386Z,99095.31
2023-04-15T10:40:31.811Z,99098.75
2023-04-15T10:44:34.840Z,99091.81
2023-04-15T10:48:38.393Z,99092.69
2023-04-15T10:52:44.161Z,99093.19
2023-04-15T10:56:52.550Z,99094.88
2023-04-15T11:00:55.668Z,99101.16
2023-04-15T11:05:01.064Z,99098.31
2023-04-15T11:09:06.269Z,99100.19
2023-04-15T11:13:21.915Z,99093.41
2023-04-15T11:17:31.046Z,99099.00
2023-04-15T11:21:34.427Z,99098.19
2023-04-15T11:25:40.234Z,99107.94
2023-04-15T11:29:44.711Z,99110.66
2023-04-15T11:33:49.170Z,99120.47
2023-04-15T11:37:52.825Z,99115.00
2023-04-15T11:41:55.656Z,99110.09
2023-04-15T11:46:00.632Z,99116.06
2023-04-15T11:50:16.807Z,99111.09
2023-04-15T11:54:20.819Z,99117.13
2023-04-15T11:58:25.275Z,99112.47
2023-04-15T12:02:34.430Z,99121.84
2023-04-15T12:06:39.201Z,99131.69
2023-04-15T12:10:42.281Z,99131.38
2023-04-15T12:14:47.242Z,99139.91
2023-04-15T12:18:56.179Z,99141.22
2023-04-15T12:23:09.026Z,99147.34
2023-04-15T12:27:14.409Z,99142.75
2023-04-15T12:31:18.311Z,99140.78
2023-04-15T12:35:23.150Z,99132.91
2023-04-15T12:39:28.107Z,99129.22
2023-04-15T12:43:52.718Z,99135.31
2023-04-15T12:47:56.220Z,99141.56
2023-04-15T12:52:02.110Z,99147.72
2023-04-15T12:56:05.508Z,99142.75
2023-04-15T13:00:10.339Z,99145.88
2023-04-15T13:04:13.750Z,99138.38
2023-04-15T13:08:28.885Z,99143.19
2023-04-15T13:12:33.403Z,99148.50
2023-04-15T13:16:37.231Z,99157.84
2023-04-15T13:20:41.098Z,99175.84
2023-04-15T13:24:45.786Z,99187.06
2023-04-15T13:28:48.860Z,99177.06
2023-04-15T13:32:52.406Z,99182.13
2023-04-15T13:36:55.756Z,99190.47
2023-04-15T13:41:02.387Z,99184.06
2023-04-15T13:45:06.530Z,99193.97
2023-04-15T13:49:12.639Z,99192.03
2023-04-15T13:53:15.921Z,99202.50
2023-04-15T13:57:20.417Z,99188.69
2023-04-15T14:01:23.669Z,99198.59
2023-04-15T14:05:29.018Z,99191.16
2023-04-15T14:09:32.163Z,99190.81
2023-04-15T14:13:36.751Z,99191.38
2023-04-15T14:17:39.850Z,99198.66
2023-04-15T14:21:42.875Z,99192.81
2023-04-15T14:25:48.943Z,99194.47
2023-04-15T14:29:54.361Z,99197.69
2023-04-15T14:33:57.711Z,99191.31
2023-04-15T14:38:01.240Z,99191.44
2023-04-15T14:42:04.784Z,99192.03
2023-04-15T14:46:11.702Z,99189.78
2023-04-15T14:50:14.920Z,99202.91
2023-04-15T14:54:22.356Z,99216.28
2023-04-15T14:58:25.630Z,99215.84
2023-04-15T15:02:39.391Z,99224.94
2023-04-15T15:06:43.425Z,99233.28
2023-04-15T15:10:49.417Z,99250.69
2023-04-15T15:14:54.809Z,99245.91
2023-04-15T15:18:59.256Z,99251.03
2023-04-15T15:23:02.228Z,99243.78
2023-04-15T15:27:05.450Z,99237.78
2023-04-15T15:31:09.190Z,99240.41
2023-04-15T15:35:16.591Z,99251.34
2023-04-15T15:39:19.647Z,99244.31
2023-04-15T15:43:24.693Z,99241.94
2023-04-15T15:47:27.823Z,99247.97
2023-04-15T15:51:33.382Z,99256.38
2023-04-15T15:55:39.107Z,99250.44
2023-04-15T15:59:43.931Z,99257.50
2023-04-15T16:03:47.137Z,99259.19
2023-04-15T16:07:51.603Z,99263.00
2023-04-15T16:11:58.114Z,99268.22
2023-04-15T16:16:01.139Z,99272.25
2023-04-15T16:20:06.423Z,99284.38
2023-04-15T16:24:11.099Z,99285.75
2023-04-15T16:28:25.681Z,99292.72
2023-04-15T16:32:29.941Z,99288.19
2023-04-15T16:36:33.012Z,99292.00
2023-04-15T16:40:38.724Z,99287.28
2023-04-15T16:44:44.701Z,99298.25
2023-04-15T16:48:47.838Z,99306.69
2023-04-15T16:52:50.939Z,99305.88
2023-04-15T16:56:59.021Z,99311.66
2023-04-15T17:01:01.920Z,99319.13
2023-04-15T17:05:05.040Z,99331.13
2023-04-15T17:09:07.842Z,99323.34
2023-04-15T17:13:14.263Z,99330.69
2023-04-15T17:17:20.961Z,99346.28
2023-04-15T17:21:24.201Z,99344.78
2023-04-15T17:25:27.350Z,99352.81
2023-04-15T17:29:32.308Z,99347.16
2023-04-15T17:34:01.117Z,99356.16
2023-04-15T17:37:59.087Z,99359.22
2023-04-15T17:42:05.026Z,99368.25
2023-04-15T17:46:09.757Z,99375.22
2023-04-15T17:50:12.869Z,99384.59
2023-04-15T17:54:16.356Z,99399.22
2023-04-15T17:58:19.361Z,99392.34
2023-04-15T18:02:29.837Z,99399.28
2023-04-15T18:06:33.248Z,99411.97
2023-04-15T18:10:38.117Z,99415.91
2023-04-15T18:14:42.769Z,99412.97
2023-04-15T18:18:49.407Z,99418.25
2023-04-15T18:22:52.840Z,99426.34
2023-04-15T18:26:56.725Z,99432.81
2023-04-15T18:30:59.617Z,99443.06
2023-04-15T18:35:08.093Z,99434.28
2023-04-15T18:39:11.358Z,99454.00
2023-04-15T18:43:14.275Z,99453.53
2023-04-15T18:47:18.203Z,99460.09
2023-04-15T18:51:23.602Z,99461.16
2023-04-15T18:55:26.780Z,99479.66
2023-04-15T18:59:36.318Z,99480.94
2023-04-15T19:03:40.053Z,99485.44
2023-04-15T19:07:44.642Z,99488.38
2023-04-15T19:11:47.926Z,99499.00
2023-04-15T19:15:50.444Z,99497.31
2023-04-15T19:19:54.095Z,99508.13
2023-04-15T19:24:00.312Z,99510.69
2023-04-15T19:28:03.578Z,99506.34
2023-04-15T19:32:07.383Z,99515.81
2023-04-15T19:36:11.902Z,99516.56
2023-04-15T19:40:19.532Z,99522.69
2023-04-15T19:44:22.564Z,99524.25
2023-04-15T19:48:27.216Z,99522.47
2023-04-15T19:52:30.165Z,99519.72
2023-04-15T19:56:34.645Z,99519.72
2023-04-15T20:00:38.385Z,99526.97
2023-04-15T20:04:42.842Z,99524.47
2023-04-15T20:08:45.881Z,99527.84
2023-04-15T20:12:53.013Z,99530.38
2023-04-15T20:16:58.519Z,99526.06
2023-04-15T20:21:01.958Z,99529.81
2023-04-15T20:25:05.273Z,99534.34
2023-04-15T20:29:13.217Z,99528.34
2023-04-15T20:33:18.527Z,99531.94
2023-04-15T20:37:22.615Z,99528.53
2023-04-15T20:41:27.693Z,99532.66
2023-04-15T20:45:32.115Z,99534.75
2023-04-15T20:49:36.092Z,99541.13
2023-04-15T20:53:39.011Z,99543.25
2023-04-15T20:57:42.615Z,99550.94
2023-04-15T21:01:47.547Z,99550.09
2023-04-15T21:05:50.593Z,99547.56
2023-04-15T21:09:55.510Z,99556.94
2023-04-15T21:13:58.683Z,99566.06
2023-04-15T21:18:08.684Z,99562.38
2023-04-15T21:22:11.924Z,99573.13
2023-04-15T21:26:14.475Z,99577.66
2023-04-15T21:30:18.275Z,99576.16
2023-04-15T21:34:23.212Z,99570.88
2023-04-15T21:38:26.515Z,99573.88
2023-04-15T21:42:31.601Z,99580.56
2023-04-15T21:46:35.631Z,99572.97
2023-04-15T21:50:40.549Z,99583.88
2023-04-15T21:54:43.511Z,99588.50
2023-04-15T21:58:46.434Z,99583.50
2023-04-15T22:02:49.451Z,99590.56
2023-04-15T22:06:55.779Z,99598.34
2023-04-15T22:10:58.804Z,99596.47
2023-04-15T22:15:02.075Z,99600.03
2023-04-15T22:19:05.443Z,99607.91
2023-04-15T22:23:10.127Z,99609.41
2023-04-15T22:27:12.882Z,99609.31
2023-04-15T22:31:16.148Z,99615.53
2023-04-15T22:35:21.467Z,99623.41
2023-04-15T22:39:26.251Z,99624.72
2023-04-15T22:43:29.462Z,99623.22
2023-04-15T22:47:32.785Z,99624.19
2023-04-15T22:51:36.821Z,99627.63
2023-04-15T22:55:41.133Z,99632.06
2023-04-15T22:59:44.248Z,99636.28
2023-04-15T23:03:56.110Z,99631.03
2023-04-15T23:08:07.648Z,99627.75
2023-04-15T23:12:12.425Z,99631.22
2023-04-15T23:16:15.513Z,99633.19
2023-04-15T23:20:21.832Z,99634.97
2023-04-15T23:24:24.837Z,99633.94
2023-04-15T23:28:29.235Z,99643.59
2023-04-15T23:32:32.491Z,99642.88
2023-04-15T23:36:35.588Z,99636.75
2023-04-15T23:40:38.547Z,99632.22
2023-04-15T23:44:43.001Z,99637.81
2023-04-15T23:48:48.054Z,99636.84
2023-04-15T23:52:51.140Z,99636.66
2023-04-15T23:56:54.167Z,99630.72
